Time;durP1;ratioP1;P1;durP2;ratioP2;P2;SDS_P1;SDS_P2;PMS_P1;PMS_P2;Temp;Humidity;BMP_temperature;BMP_pressure;BME280_temperature;BME280_humidity;BME280_pressure;Samples;Min_cycle;Max_cycle;Signal;HPM_P1;HPM_P2
2022/10/06 00:01:39;;;;;;;;;;;;;;;14.39;60.10;100980.34;4267467;33;20002;-90
2022/10/06 00:04:07;;;;;;;;;;;;;;;14.30;60.31;100969.75;4277773;33;20438;-89
2022/10/06 00:06:33;;;;;;;;;;;;;;;14.33;60.22;100969.81;4266856;33;19985;-90
2022/10/06 00:09:00;;;;;;;;;;;;;;;14.41;60.08;100968.22;4266560;33;20332;-90
2022/10/06 00:11:27;;;;;;;;;;;;;;;14.17;60.76;100967.75;4272132;33;20089;-89
2022/10/06 00:13:55;;;;;;;;;;;;;;;14.33;60.17;100969.81;4257834;33;20000;-90
2022/10/06 00:16:22;;;;;;;;;;;;;;;14.18;60.63;100969.50;4257255;33;20044;-89
2022/10/06 00:18:49;;;;;;;;;;;;;;;14.11;61.01;100972.84;4256996;33;20346;-90
2022/10/06 00:21:16;;;;;;;;;;;;;;;14.35;60.36;100962.00;4250357;33;20540;-90
2022/10/06 00:23:43;;;;;;;;;;;;;;;14.49;59.73;100959.69;4259045;33;19990;-90
2022/10/06 00:26:15;;;;;;;;;;;;;;;14.59;59.28;100964.22;4262971;33;19997;-89
2022/10/06 00:28:44;;;;;;;;;;;;;;;14.63;59.16;100961.69;4252961;33;19997;-90
2022/10/06 00:31:12;;;;;;;;;;;;;;;14.43;59.30;100960.44;4263575;33;19989;-90
2022/10/06 00:33:39;;;;;;;;;;;;;;;14.43;59.29;100955.22;4252541;33;20084;-89
2022/10/06 00:36:06;;;;;;;;;;;;;;;14.48;58.83;100957.91;4245771;33;20038;-89
2022/10/06 00:38:33;;;;;;;;;;;;;;;14.49;58.54;100959.69;4269339;33;20462;-89
2022/10/06 00:41:00;;;;;;;;;;;;;;;14.35;59.08;100955.06;4262734;33;20001;-89
2022/10/06 00:43:45;;;;;;;;;;;;;;;14.28;59.46;100963.63;4252732;33;20313;-89
2022/10/06 00:46:14;;;;;;;;;;;;;;;14.31;59.14;100955.87;4252399;33;20004;-89
2022/10/06 00:48:41;;;;;;;;;;;;;;;14.33;59.13;100958.53;4270922;33;19997;-89
2022/10/06 00:51:08;;;;;;;;;;;;;;;14.23;59.41;100962.69;4270097;33;19981;-89
2022/10/06 00:53:35;;;;;;;;;;;;;;;14.06;59.84;100958.84;4265127;33;19973;-89
2022/10/06 00:56:02;;;;;;;;;;;;;;;14.29;58.90;100957.56;4253245;33;20416;-90
2022/10/06 00:58:30;;;;;;;;;;;;;;;14.26;58.74;100951.41;4257619;33;19992;-90
2022/10/06 01:00:57;;;;;;;;;;;;;;;13.88;59.77;100959.34;4238002;33;20265;-90
2022/10/06 01:03:33;;;;;;;;;;;;;;;14.19;58.80;100958.25;4249026;33;19990;-90
2022/10/06 01:06:01;;;;;;;;;;;;;;;14.11;58.90;100959.84;4261792;33;20005;-89
2022/10/06 01:08:28;;;;;;;;;;;;;;;14.16;58.62;100951.25;4252796;33;20309;-89
2022/10/06 01:10:55;;;;;;;;;;;;;;;13.93;59.07;100956.00;4239546;33;20335;-90
2022/10/06 01:13:22;;;;;;;;;;;;;;;13.99;58.50;100954.38;4262054;33;19985;-89
2022/10/06 01:15:57;;;;;;;;;;;;;;;14.00;58.64;100958.72;4244098;33;20007;-90
2022/10/06 01:18:25;;;;;;;;;;;;;;;13.92;58.52;100959.47;4250962;33;20083;-89
2022/10/06 01:21:02;;;;;;;;;;;;;;;13.72;58.90;100953.84;4239997;33;19977;-89
2022/10/06 01:23:30;;;;;;;;;;;;;;;13.82;58.83;100954.03;4246428;33;20410;-90
2022/10/06 01:25:57;;;;;;;;;;;;;;;13.73;59.29;100959.94;4253523;33;20025;-90
2022/10/06 01:28:24;;;;;;;;;;;;;;;13.80;58.71;100961.81;4252221;33;20288;-89
2022/10/06 01:30:53;;;;;;;;;;;;;;;13.66;58.96;100952.84;4246624;33;20017;-88
2022/10/06 01:33:20;;;;;;;;;;;;;;;13.61;59.19;100954.44;4264437;33;19997;-90
2022/10/06 01:35:49;;;;;;;;;;;;;;;14.01;57.32;100960.47;4264195;33;20492;-90
2022/10/06 01:38:16;;;;;;;;;;;;;;;13.72;58.35;100963.38;4273466;33;19993;-89
2022/10/06 01:40:44;;;;;;;;;;;;;;;13.75;58.09;100960.81;4282265;33;20024;-90
2022/10/06 01:43:11;;;;;;;;;;;;;;;13.74;58.11;100961.66;4261622;33;20799;-89
2022/10/06 01:45:41;;;;;;;;;;;;;;;13.38;58.91;100962.63;4268286;33;20449;-90
2022/10/06 01:48:07;;;;;;;;;;;;;;;13.55;58.50;100967.31;4268048;33;20564;-90
2022/10/06 01:50:35;;;;;;;;;;;;;;;13.59;58.47;100971.75;4280235;33;19989;-90
2022/10/06 01:53:02;;;;;;;;;;;;;;;13.61;58.10;100976.13;4269374;33;19999;-89
2022/10/06 01:55:30;;;;;;;;;;;;;;;13.62;57.89;100971.81;4281162;33;20035;-89
2022/10/06 01:57:57;;;;;;;;;;;;;;;13.42;58.62;100980.06;4279681;33;19993;-89
2022/10/06 02:00:24;;;;;;;;;;;;;;;13.31;58.67;100971.12;4263135;33;20772;-90
2022/10/06 02:02:52;;;;;;;;;;;;;;;13.40;58.50;100975.66;4248236;33;20022;-90
2022/10/06 02:05:19;;;;;;;;;;;;;;;13.49;58.02;100976.72;4271271;33;19988;-91
2022/10/06 02:07:46;;;;;;;;;;;;;;;13.53;58.00;100980.31;4277917;33;20052;-90
2022/10/06 02:10:14;;;;;;;;;;;;;;;13.39;58.38;100979.97;4273847;33;20141;-90
2022/10/06 02:12:42;;;;;;;;;;;;;;;13.40;58.30;100981.75;4245450;33;20680;-89
2022/10/06 02:15:11;;;;;;;;;;;;;;;13.20;58.41;100977.75;4266276;33;20374;-90
2022/10/06 02:17:39;;;;;;;;;;;;;;;13.25;58.32;100977.06;4278378;33;20015;-90
2022/10/06 02:20:06;;;;;;;;;;;;;;;13.28;58.26;100989.28;4256660;33;20060;-90
2022/10/06 02:22:36;;;;;;;;;;;;;;;13.31;58.21;100986.75;4276664;33;20029;-89
2022/10/06 02:25:03;;;;;;;;;;;;;;;13.36;58.04;100982.50;4256681;33;20018;-89
2022/10/06 02:27:30;;;;;;;;;;;;;;;13.40;57.68;100986.06;4257720;33;20037;-89
2022/10/06 02:29:57;;;;;;;;;;;;;;;13.30;58.23;100984.97;4256628;33;20338;-89
2022/10/06 02:32:30;;;;;;;;;;;;;;;13.32;58.06;100998.91;4254843;33;20374;-89
2022/10/06 02:34:59;;;;;;;;;;;;;;;13.06;58.75;100989.56;4267451;33;20001;-89
2022/10/06 02:37:25;;;;;;;;;;;;;;;13.07;58.60;100999.13;4257467;33;20376;-89
2022/10/06 02:39:52;;;;;;;;;;;;;;;13.08;58.63;100987.88;4257350;33;19996;-89
2022/10/06 02:42:19;;;;;;;;;;;;;;;13.11;58.04;100990.53;4268526;33;19985;-89
2022/10/06 02:44:48;;;;;;;;;;;;;;;13.29;57.79;100983.22;4267437;33;20023;-89
2022/10/06 02:47:15;;;;;;;;;;;;;;;13.06;58.62;100984.38;4282592;33;20789;-89
2022/10/06 02:49:42;;;;;;;;;;;;;;;13.26;57.84;100993.53;4282461;33;20375;-89
2022/10/06 02:52:10;;;;;;;;;;;;;;;13.23;58.30;100993.44;4269284;33;20047;-89
2022/10/06 02:54:36;;;;;;;;;;;;;;;13.18;58.12;100984.66;4282511;33;20694;-89
2022/10/06 02:57:03;;;;;;;;;;;;;;;13.27;57.56;100987.50;4282414;33;19976;-90
2022/10/06 02:59:30;;;;;;;;;;;;;;;12.96;58.36;100989.34;4282400;33;20834;-89
2022/10/06 03:01:57;;;;;;;;;;;;;;;13.13;57.60;100991.47;4281848;33;19985;-89
2022/10/06 03:04:24;;;;;;;;;;;;;;;13.02;57.77;100993.81;4269123;33;19989;-89
2022/10/06 03:06:51;;;;;;;;;;;;;;;13.06;57.72;100997.38;4282932;33;19989;-90
2022/10/06 03:09:18;;;;;;;;;;;;;;;13.21;56.83;100992.53;4256984;33;19977;-89
2022/10/06 03:11:45;;;;;;;;;;;;;;;12.92;58.02;100997.91;4282260;33;20327;-89
2022/10/06 03:14:12;;;;;;;;;;;;;;;12.78;58.15;100994.06;4269192;33;20457;-89
2022/10/06 03:16:46;;;;;;;;;;;;;;;12.61;58.69;100991.03;4282323;33;19984;-90
2022/10/06 03:19:13;;;;;;;;;;;;;;;12.51;59.18;100992.50;4269222;33;20363;-90
2022/10/06 03:21:41;;;;;;;;;;;;;;;12.83;57.96;100997.66;4255977;33;19995;-89
2022/10/06 03:24:09;;;;;;;;;;;;;;;12.88;57.80;101006.44;4269275;33;20397;-90
2022/10/06 03:26:37;;;;;;;;;;;;;;;12.64;58.49;101005.84;4256708;33;20600;-90
2022/10/06 03:29:04;;;;;;;;;;;;;;;12.38;59.30;101003.41;4268901;33;19977;-89
2022/10/06 03:31:38;;;;;;;;;;;;;;;12.59;58.92;100999.63;4257261;33;19977;-89
2022/10/06 03:34:05;;;;;;;;;;;;;;;12.88;57.99;101006.44;4268218;33;19996;-89
2022/10/06 03:36:32;;;;;;;;;;;;;;;12.88;57.65;101006.44;4282249;33;20367;-89
2022/10/06 03:39:00;;;;;;;;;;;;;;;12.96;57.10;101004.06;4267235;33;20000;-89
2022/10/06 03:41:28;;;;;;;;;;;;;;;12.56;58.43;100998.69;4282145;33;20029;-89
2022/10/06 03:43:55;;;;;;;;;;;;;;;12.68;57.95;100997.28;4281691;33;19989;-89
2022/10/06 03:46:23;;;;;;;;;;;;;;;12.87;57.32;101003.81;4281832;33;20040;-89
2022/10/06 03:48:51;;;;;;;;;;;;;;;12.43;58.11;100996.59;4268355;33;20010;-90
2022/10/06 03:51:22;;;;;;;;;;;;;;;12.66;57.75;100998.94;4255927;33;20009;-89
2022/10/06 03:53:50;;;;;;;;;;;;;;;12.74;57.45;100994.84;4277695;33;20335;-89
2022/10/06 03:56:19;;;;;;;;;;;;;;;12.69;57.58;100993.81;4278409;33;20002;-89
2022/10/06 03:58:53;;;;;;;;;;;;;;;12.44;58.12;100998.34;4277927;33;20333;-89
2022/10/06 04:01:21;;;;;;;;;;;;;;;12.34;58.63;101006.75;4267905;33;19990;-89
2022/10/06 04:03:54;;;;;;;;;;;;;;;12.54;58.16;101000.38;4270036;33;19990;-89
2022/10/06 04:06:21;;;;;;;;;;;;;;;12.48;58.25;100999.34;4263194;33;20005;-90
2022/10/06 04:08:48;;;;;;;;;;;;;;;12.24;58.54;101004.72;4281710;33;20486;-89
2022/10/06 04:11:16;;;;;;;;;;;;;;;12.44;57.91;101007.88;4281580;33;20008;-89
2022/10/06 04:13:44;;;;;;;;;;;;;;;12.20;58.55;101013.28;4132318;33;5001671;-90
2022/10/06 04:16:11;;;;;;;;;;;;;;;12.37;58.29;101012.03;4268772;33;19993;-90
2022/10/06 04:18:39;;;;;;;;;;;;;;;12.40;58.08;101012.09;4268741;33;20049;-90
2022/10/06 04:21:06;;;;;;;;;;;;;;;12.31;58.48;101017.03;4263527;33;20048;-90
2022/10/06 04:23:35;;;;;;;;;;;;;;;12.39;58.06;101018.16;4248771;33;20045;-89
2022/10/06 04:26:05;;;;;;;;;;;;;;;12.29;58.35;101016.13;4258672;33;20008;-90
2022/10/06 04:28:32;;;;;;;;;;;;;;;12.36;58.08;101015.47;4265499;33;20001;-88
2022/10/06 04:30:59;;;;;;;;;;;;;;;12.48;57.66;101010.59;4267395;33;20056;-84
2022/10/06 04:33:27;;;;;;;;;;;;;;;12.40;58.02;101016.41;4275191;33;19985;-84
2022/10/06 04:35:57;;;;;;;;;;;;;;;12.15;58.53;101014.84;4278714;33;19996;-84
2022/10/06 04:38:24;;;;;;;;;;;;;;;12.23;58.33;101018.56;4277183;33;20048;-84
2022/10/06 04:40:52;;;;;;;;;;;;;;;12.32;58.04;101018.81;4280418;33;20595;-84
2022/10/06 04:43:19;;;;;;;;;;;;;;;12.38;58.21;101013.81;4259852;33;20391;-85
2022/10/06 04:45:46;;;;;;;;;;;;;;;12.23;58.59;101013.37;4273875;33;19985;-84
2022/10/06 04:48:13;;;;;;;;;;;;;;;12.24;58.39;101004.72;4287782;33;19996;-84
2022/10/06 04:50:39;;;;;;;;;;;;;;;12.12;58.63;101009.56;4283665;33;20041;-84
2022/10/06 04:53:06;;;;;;;;;;;;;;;12.38;57.74;101008.59;4288021;33;20004;-84
2022/10/06 04:55:33;;;;;;;;;;;;;;;12.36;57.94;101010.28;4261520;33;20064;-85
2022/10/06 04:58:01;;;;;;;;;;;;;;;12.07;58.33;101010.34;4270769;33;20387;-83
2022/10/06 05:00:27;;;;;;;;;;;;;;;12.17;58.31;101013.19;4281453;33;20040;-84
2022/10/06 05:02:55;;;;;;;;;;;;;;;12.36;57.69;101015.47;4282695;33;20808;-84
2022/10/06 05:05:22;;;;;;;;;;;;;;;12.26;58.40;101013.47;4285015;33;19992;-84
2022/10/06 05:07:49;;;;;;;;;;;;;;;11.98;59.35;101007.47;4297209;33;20036;-81
2022/10/06 05:10:16;;;;;;;;;;;;;;;11.97;59.37;101008.31;4297551;33;19999;-84
2022/10/06 05:12:43;;;;;;;;;;;;;;;12.37;58.06;101012.03;4284490;33;19996;-84
2022/10/06 05:15:10;;;;;;;;;;;;;;;12.28;58.71;101016.94;3685751;33;10010269;-82
2022/10/06 05:17:37;;;;;;;;;;;;;;;12.30;58.92;101010.09;4272762;33;20010;-82
2022/10/06 05:20:04;;;;;;;;;;;;;;;12.20;59.21;101010.69;4282695;33;20039;-83
2022/10/06 05:22:30;;;;;;;;;;;;;;;12.18;59.25;101014.94;4283529;33;20033;-82
2022/10/06 05:25:00;;;;;;;;;;;;;;;12.22;59.07;101017.69;4280749;33;19988;-82
2022/10/06 05:27:27;;;;;;;;;;;;;;;12.05;59.71;101019.78;4282739;33;20303;-82
2022/10/06 05:29:54;;;;;;;;;;;;;;;12.41;58.70;101019.06;4277751;33;20053;-83
2022/10/06 05:32:21;;;;;;;;;;;;;;;12.20;59.80;101018.47;4280894;33;19985;-82
2022/10/06 05:34:48;;;;;;;;;;;;;;;12.56;58.83;101019.47;4280951;33;20000;-82
2022/10/06 05:37:14;;;;;;;;;;;;;;;12.67;58.56;101021.50;4280223;33;20001;-83
2022/10/06 05:39:42;;;;;;;;;;;;;;;12.41;59.80;101024.28;4281237;33;20351;-82
2022/10/06 05:42:08;;;;;;;;;;;;;;;12.51;59.55;101015.88;4282580;33;20032;-82
2022/10/06 05:44:36;;;;;;;;;;;;;;;12.31;60.73;101019.63;4282319;33;20033;-83
2022/10/06 05:47:03;;;;;;;;;;;;;;;12.82;59.05;101021.00;4282204;33;19981;-83
2022/10/06 05:49:30;;;;;;;;;;;;;;;12.60;60.02;101024.75;4282127;33;20003;-81
2022/10/06 05:51:57;;;;;;;;;;;;;;;12.62;59.93;101017.88;4283128;33;19985;-82
2022/10/06 05:54:24;;;;;;;;;;;;;;;12.70;59.98;101027.66;4282143;33;20364;-82
2022/10/06 05:56:51;;;;;;;;;;;;;;;12.57;61.14;101036.84;4269778;33;19989;-82
2022/10/06 05:59:18;;;;;;;;;;;;;;;12.69;61.07;101027.59;4281871;33;19996;-83
2022/10/06 06:01:45;;;;;;;;;;;;;;;12.62;61.39;101025.69;4261038;33;20040;-82
2022/10/06 06:04:13;;;;;;;;;;;;;;;12.80;60.68;101029.66;4260954;33;19992;-82
2022/10/06 06:06:41;;;;;;;;;;;;;;;12.88;60.81;101029.84;4269756;33;20327;-82
2022/10/06 06:09:09;;;;;;;;;;;;;;;12.80;61.40;101039.16;4264509;33;20001;-82
2022/10/06 06:11:40;;;;;;;;;;;;;;;12.86;61.32;101041.94;4282291;33;19973;-82
2022/10/06 06:14:08;;;;;;;;;;;;;;;12.94;61.28;101045.59;4271731;33;20004;-83
2022/10/06 06:16:37;;;;;;;;;;;;;;;12.93;61.56;101049.03;4281878;33;20483;-83
2022/10/06 06:19:05;;;;;;;;;;;;;;;13.16;60.87;101043.53;3676534;33;10011818;-83
2022/10/06 06:21:34;;;;;;;;;;;;;;;13.25;60.86;101049.88;4278182;33;19993;-83
2022/10/06 06:24:01;;;;;;;;;;;;;;;13.37;60.82;101058.81;4255121;33;20029;-83
2022/10/06 06:26:30;;;;;;;;;;;;;;;13.36;61.05;101062.25;4280380;33;20001;-83
2022/10/06 06:29:01;;;;;;;;;;;;;;;13.42;60.99;101068.47;4281553;33;20300;-83
2022/10/06 06:31:36;;;;;;;;;;;;;;;13.45;60.72;101068.56;4282042;33;19993;-83
2022/10/06 06:34:05;;;;;;;;;;;;;;;13.45;60.61;101068.56;4268042;33;20068;-82
2022/10/06 06:36:34;;;;;;;;;;;;;;;13.55;60.51;101069.66;4268747;33;20040;-83
2022/10/06 06:39:04;;;;;;;;;;;;;;;13.84;60.36;101078.13;4282071;33;20024;-84
2022/10/06 06:41:32;;;;;;;;;;;;;;;13.73;60.47;101082.22;4267088;33;19988;-82
2022/10/06 06:44:00;;;;;;;;;;;;;;;13.75;61.13;101085.72;4268564;33;20303;-83
2022/10/06 06:46:30;;;;;;;;;;;;;;;14.08;59.78;101084.75;4275854;33;20045;-82
2022/10/06 06:49:03;;;;;;;;;;;;;;;13.82;61.02;101079.84;4269194;33;20060;-83
2022/10/06 06:51:32;;;;;;;;;;;;;;;13.68;62.08;101081.22;4267380;33;19993;-82
2022/10/06 06:54:01;;;;;;;;;;;;;;;14.02;60.76;101084.63;4267940;33;20009;-83
2022/10/06 06:56:33;;;;;;;;;;;;;;;14.19;60.47;101093.66;4268305;33;20016;-82
2022/10/06 06:59:02;;;;;;;;;;;;;;;14.54;59.57;101093.53;4268887;33;20000;-83
2022/10/06 07:01:30;;;;;;;;;;;;;;;14.64;59.86;101090.25;4268403;33;20049;-82
2022/10/06 07:03:59;;;;;;;;;;;;;;;14.67;60.75;101087.72;4281754;33;20489;-83
2022/10/06 07:06:28;;;;;;;;;;;;;;;15.00;60.45;101094.44;4268588;33;20052;-82
2022/10/06 07:08:56;;;;;;;;;;;;;;;15.37;59.01;101095.06;4281043;33;20017;-82
2022/10/06 07:11:28;;;;;;;;;;;;;;;15.41;58.57;101096.84;4281967;33;20047;-83
2022/10/06 07:13:57;;;;;;;;;;;;;;;15.86;57.07;101106.28;4266802;33;19995;-81
2022/10/06 07:25:07;;;;;;;;;;;;;;;17.06;54.45;101104.34;4282643;33;20047;-83
2022/10/06 07:27:35;;;;;;;;;;;;;;;17.46;53.65;101104.72;4270335;33;20091;-82
2022/10/06 07:30:05;;;;;;;;;;;;;;;18.00;52.82;101103.38;4267339;33;19992;-82
2022/10/06 07:32:32;;;;;;;;;;;;;;;18.26;52.30;101108.75;4280651;33;20000;-82
2022/10/06 07:34:59;;;;;;;;;;;;;;;18.28;51.54;101108.75;4285498;33;20041;-83
2022/10/06 07:37:27;;;;;;;;;;;;;;;18.62;50.43;101108.91;4281059;33;20012;-83
2022/10/06 07:39:55;;;;;;;;;;;;;;;18.91;50.32;101102.00;4280570;33;20064;-82
2022/10/06 07:42:22;;;;;;;;;;;;;;;19.02;49.58;101104.69;4255374;33;20083;-84
2022/10/06 07:47:39;;;;;;;;;;;;;;;19.39;49.44;101105.56;4253657;33;873223;-87
2022/10/06 07:50:07;;;;;;;;;;;;;;;19.65;49.08;101104.72;4265708;33;19988;-86
2022/10/06 07:52:38;;;;;;;;;;;;;;;19.70;49.64;101110.84;4283964;33;20039;-84
2022/10/06 07:55:05;;;;;;;;;;;;;;;19.87;49.34;101109.06;4281844;33;19973;-87
2022/10/06 07:57:34;;;;;;;;;;;;;;;19.93;48.53;101111.69;4287317;33;19989;-85
2022/10/06 08:00:04;;;;;;;;;;;;;;;20.07;47.80;101116.03;4282866;33;19993;-84
2022/10/06 08:02:38;;;;;;;;;;;;;;;20.24;46.95;101108.97;4280400;33;19996;-84
2022/10/06 08:05:07;;;;;;;;;;;;;;;20.60;47.97;101112.38;4282287;33;20845;-85
2022/10/06 08:07:34;;;;;;;;;;;;;;;20.70;47.05;101114.06;4286589;33;20470;-84
2022/10/06 08:10:00;;;;;;;;;;;;;;;20.63;48.19;101113.22;4276254;33;20044;-84
2022/10/06 08:12:33;;;;;;;;;;;;;;;20.79;46.96;101114.03;4285549;33;20003;-86
2022/10/06 08:15:02;;;;;;;;;;;;;;;20.84;46.29;101112.25;4264846;33;19992;-86
2022/10/06 08:17:35;;;;;;;;;;;;;;;20.88;45.62;101108.72;4275938;33;19996;-87
2022/10/06 08:20:06;;;;;;;;;;;;;;;20.73;46.31;101114.06;4278529;33;20004;-84
2022/10/06 08:22:33;;;;;;;;;;;;;;;20.47;46.86;101115.91;4281129;33;20385;-84
2022/10/06 08:24:59;;;;;;;;;;;;;;;20.42;46.39;101114.19;4282644;33;19999;-84
2022/10/06 08:27:33;;;;;;;;;;;;;;;20.76;46.13;101114.03;4293277;33;19977;-84
2022/10/06 08:30:01;;;;;;;;;;;;;;;20.73;45.53;101114.06;4276270;33;19999;-85
2022/10/06 08:32:27;;;;;;;;;;;;;;;21.09;46.39;101109.44;4297217;33;20331;-84
2022/10/06 08:34:54;;;;;;;;;;;;;;;21.51;45.67;101115.34;4266443;33;743653;-84
2022/10/06 08:37:26;;;;;;;;;;;;;;;21.37;46.23;101118.94;4296671;33;20311;-84
2022/10/06 08:39:53;;;;;;;;;;;;;;;21.34;47.18;101112.78;4297239;33;20424;-85
2022/10/06 08:42:40;;;;;;;;;;;;;;;21.35;46.11;101112.81;4297376;33;19985;-85
2022/10/06 08:45:20;;;;;;;;;;;;;;;21.37;46.54;101113.66;4283968;33;19982;-85
2022/10/06 08:47:55;;;;;;;;;;;;;;;21.86;45.17;101116.75;4273014;33;20041;-84
2022/10/06 08:50:23;;;;;;;;;;;;;;;21.68;44.16;101118.69;4287879;33;19980;-84
2022/10/06 08:52:49;;;;;;;;;;;;;;;21.79;44.86;101119.47;4269721;33;20334;-85
2022/10/06 08:55:17;;;;;;;;;;;;;;;22.00;44.04;101114.84;4267535;33;19999;-85
2022/10/06 08:57:59;;;;;;;;;;;;;;;21.93;45.17;101118.44;4261823;33;20004;-85
2022/10/06 09:00:28;;;;;;;;;;;;;;;21.82;44.36;101116.81;4268616;33;20025;-85
2022/10/06 09:02:56;;;;;;;;;;;;;;;22.13;45.31;101116.47;4281220;33;20056;-85
2022/10/06 09:05:28;;;;;;;;;;;;;;;22.32;44.78;101108.37;4284712;33;20006;-85
2022/10/06 09:08:06;;;;;;;;;;;;;;;22.59;43.38;101108.03;4282517;33;20065;-85
2022/10/06 09:10:43;;;;;;;;;;;;;;;22.59;42.92;101113.31;4267312;33;19993;-84
2022/10/06 09:13:11;;;;;;;;;;;;;;;22.80;42.56;101103.34;4263491;33;20039;-84
2022/10/06 09:15:46;;;;;;;;;;;;;;;22.43;46.18;101109.09;4268532;33;19985;-83
2022/10/06 09:18:33;;;;;;;;;;;;;;;22.51;46.55;101109.91;4278189;33;20357;-84
2022/10/06 09:21:32;;;;;;;;;;;;;;;22.69;43.83;101109.66;4276332;33;20003;-85
2022/10/06 09:24:02;;;;;;;;;;;;;;;22.69;44.98;101112.31;4271386;33;20343;-85
2022/10/06 09:26:30;;;;;;;;;;;;;;;23.24;44.18;101115.94;4269991;33;20000;-85
2022/10/06 09:28:57;;;;;;;;;;;;;;;23.11;44.49;101114.38;4282515;33;20393;-86
2022/10/06 09:31:27;;;;;;;;;;;;;;;23.23;42.52;101113.28;4283102;33;20346;-85
2022/10/06 09:34:17;;;;;;;;;;;;;;;23.31;42.76;101114.94;4280020;33;19993;-84
2022/10/06 09:36:59;;;;;;;;;;;;;;;23.42;42.30;101117.38;4248013;33;20982;-83
2022/10/06 09:39:32;;;;;;;;;;;;;;;23.08;42.05;101115.28;4255305;33;20324;-84
2022/10/06 09:42:03;;;;;;;;;;;;;;;22.51;46.20;101117.81;4248097;33;19992;-83
2022/10/06 09:44:39;;;;;;;;;;;;;;;22.83;46.18;101119.16;4261590;33;19993;-84
2022/10/06 09:47:21;;;;;;;;;;;;;;;23.11;41.60;101115.25;4255355;33;20022;-83
2022/10/06 09:50:08;;;;;;;;;;;;;;;23.36;40.56;101120.16;4255111;33;20391;-85
2022/10/06 09:52:35;;;;;;;;;;;;;;;22.91;44.12;101119.91;4267506;33;20448;-84
2022/10/06 09:55:05;;;;;;;;;;;;;;;22.55;43.84;101124.78;4268444;33;19993;-82
2022/10/06 09:57:32;;;;;;;;;;;;;;;23.08;42.62;101117.94;4260437;33;19973;-82
2022/10/06 09:59:59;;;;;;;;;;;;;;;23.10;43.75;101124.09;4265613;33;20057;-83
2022/10/06 10:02:32;;;;;;;;;;;;;;;22.09;44.95;101130.59;4247808;33;19981;-82
2022/10/06 10:05:01;;;;;;;;;;;;;;;23.03;42.82;101127.69;4254251;33;20000;-84
2022/10/06 10:07:28;;;;;;;;;;;;;;;23.64;40.53;101123.19;4249200;33;19977;-82
2022/10/06 10:10:10;;;;;;;;;;;;;;;23.46;41.89;101121.75;4268112;33;19993;-84
2022/10/06 10:12:37;;;;;;;;;;;;;;;23.41;40.87;101118.28;4255006;33;20012;-84
2022/10/06 10:15:22;;;;;;;;;;;;;;;23.86;41.48;101121.06;4255256;33;19985;-83
2022/10/06 10:17:54;;;;;;;;;;;;;;;23.93;39.69;101117.44;4268237;33;19999;-83
2022/10/06 10:20:23;;;;;;;;;;;;;;;23.26;43.19;101113.25;4242852;33;20012;-85
2022/10/06 10:22:54;;;;;;;;;;;;;;;23.43;41.52;101116.50;4249140;33;19981;-86
2022/10/06 10:25:33;;;;;;;;;;;;;;;23.23;42.46;101123.88;4268186;33;19993;-85
2022/10/06 10:28:05;;;;;;;;;;;;;;;23.53;39.60;101107.53;4268266;33;20295;-85
2022/10/06 10:30:34;;;;;;;;;;;;;;;23.26;42.85;101119.44;4267608;33;20049;-85
2022/10/06 10:33:18;;;;;;;;;;;;;;;23.18;43.18;101116.03;4255051;33;19981;-85
2022/10/06 10:35:50;;;;;;;;;;;;;;;22.96;41.52;101108.41;4266196;33;19989;-85
2022/10/06 10:38:20;;;;;;;;;;;;;;;23.05;42.45;101104.78;4269508;33;19976;-84
2022/10/06 10:40:49;;;;;;;;;;;;;;;23.36;41.61;101109.59;4268903;33;20037;-84
2022/10/06 10:43:24;;;;;;;;;;;;;;;23.14;42.21;101104.63;4269163;33;20037;-83
2022/10/06 10:45:56;;;;;;;;;;;;;;;22.88;42.27;101101.50;4268917;33;20004;-83
2022/10/06 10:48:31;;;;;;;;;;;;;;;22.11;44.40;101112.97;4281778;33;19995;-84
2022/10/06 10:51:06;;;;;;;;;;;;;;;23.02;42.19;101104.81;4268841;33;19993;-84
2022/10/06 10:53:42;;;;;;;;;;;;;;;22.80;43.29;101108.63;4269300;33;20032;-84
2022/10/06 10:56:10;;;;;;;;;;;;;;;22.85;44.07;101106.81;4269230;33;20461;-84
2022/10/06 10:58:37;;;;;;;;;;;;;;;22.37;42.91;101103.94;4267947;33;20003;-84
2022/10/06 11:01:10;;;;;;;;;;;;;;;23.00;41.86;101101.31;4258066;33;20038;-84
2022/10/06 11:03:37;;;;;;;;;;;;;;;22.91;41.54;101106.69;4267742;33;20008;-84
2022/10/06 11:06:23;;;;;;;;;;;;;;;23.27;41.10;101110.59;4275215;33;20006;-85
2022/10/06 11:08:57;;;;;;;;;;;;;;;23.26;39.64;101113.25;4261796;33;20006;-86
2022/10/06 11:11:26;;;;;;;;;;;;;;;23.26;38.66;101107.97;4281285;33;20028;-86
2022/10/06 11:13:53;;;;;;;;;;;;;;;23.16;40.31;101108.09;4282544;33;20007;-84
2022/10/06 11:16:30;;;;;;;;;;;;;;;23.18;40.39;101111.59;4269144;33;20008;-84
2022/10/06 11:19:17;;;;;;;;;;;;;;;23.38;39.38;101111.28;4269058;33;19976;-85
2022/10/06 11:21:54;;;;;;;;;;;;;;;23.81;39.47;101101.78;4280903;33;19985;-86
2022/10/06 11:24:23;;;;;;;;;;;;;;;23.48;39.72;101103.19;4280537;33;19988;-86
2022/10/06 11:26:53;;;;;;;;;;;;;;;23.71;40.78;101101.09;4281277;33;20012;-86
2022/10/06 11:29:39;;;;;;;;;;;;;;;24.05;40.86;101106.59;4279516;33;20046;-86
2022/10/06 11:32:11;;;;;;;;;;;;;;;24.45;39.25;101095.25;4278718;33;20058;-86
2022/10/06 11:34:38;;;;;;;;;;;;;;;24.49;37.37;101098.69;4267787;33;20305;-86
2022/10/06 11:37:24;;;;;;;;;;;;;;;23.73;40.87;101087.81;4267230;33;20035;-85
2022/10/06 11:40:10;;;;;;;;;;;;;;;24.26;38.65;101083.28;4279136;33;19976;-86
2022/10/06 11:42:39;;;;;;;;;;;;;;;24.17;38.68;101083.47;4266879;33;20012;-86
2022/10/06 11:45:13;;;;;;;;;;;;;;;24.32;38.46;101078.72;4263227;33;19985;-86
2022/10/06 11:47:40;;;;;;;;;;;;;;;24.34;37.84;101076.91;4280689;33;20405;-87
2022/10/06 11:50:36;;;;;;;;;;;;;;;23.81;40.08;101075.34;4280048;33;19999;-85
2022/10/06 11:53:21;;;;;;;;;;;;;;;23.86;40.66;101078.75;4274129;33;20549;-84
2022/10/06 11:56:06;;;;;;;;;;;;;;;24.17;39.76;101075.53;4268340;33;20007;-85
2022/10/06 11:58:59;;;;;;;;;;;;;;;24.19;38.82;101081.66;4268739;33;19980;-85
2022/10/06 12:01:29;;;;;;;;;;;;;;;24.01;40.52;101088.19;4279890;33;20003;-83
2022/10/06 12:04:08;;;;;;;;;;;;;;;24.20;40.79;101078.09;4281497;33;19996;-84
2022/10/06 12:06:44;;;;;;;;;;;;;;;24.14;41.47;101074.66;4280210;33;19989;-84
2022/10/06 12:09:23;;;;;;;;;;;;;;;24.30;39.12;101079.66;4280776;33;20740;-83
2022/10/06 12:12:00;;;;;;;;;;;;;;;24.29;40.14;101075.28;4260242;33;20478;-84
2022/10/06 12:14:27;;;;;;;;;;;;;;;23.73;43.47;101082.53;4258313;33;19988;-83
2022/10/06 12:17:14;;;;;;;;;;;;;;;24.32;39.75;101072.56;4265342;33;20303;-83
2022/10/06 12:19:45;;;;;;;;;;;;;;;24.37;39.83;101065.38;4259753;33;20028;-85
2022/10/06 12:22:18;;;;;;;;;;;;;;;24.27;40.04;101069.12;4274730;33;19985;-85
2022/10/06 12:24:55;;;;;;;;;;;;;;;24.38;39.33;101067.16;4255824;33;19989;-85
2022/10/06 12:27:40;;;;;;;;;;;;;;;24.45;39.51;101063.50;4264019;33;20056;-86
2022/10/06 12:30:17;;;;;;;;;;;;;;;23.61;42.53;101063.34;4273832;33;20014;-83
2022/10/06 12:32:52;;;;;;;;;;;;;;;23.28;43.05;101067.41;4272768;33;20016;-84
2022/10/06 12:35:23;;;;;;;;;;;;;;;23.21;43.14;101064.00;4274047;33;20331;-82
2022/10/06 12:37:54;;;;;;;;;;;;;;;23.71;41.11;101057.87;4286368;33;19989;-82
2022/10/06 12:40:45;;;;;;;;;;;;;;;23.80;42.28;101052.44;4271629;33;19981;-81
2022/10/06 12:43:18;;;;;;;;;;;;;;;23.96;42.90;101053.87;4287432;33;20387;-83
2022/10/06 12:45:54;;;;;;;;;;;;;;;23.87;43.20;101054.06;4283976;33;20020;-84
2022/10/06 12:48:26;;;;;;;;;;;;;;;24.26;41.87;101054.16;4286281;33;20032;-83
2022/10/06 12:51:05;;;;;;;;;;;;;;;24.11;43.00;101053.56;4272448;33;19984;-84
2022/10/06 12:54:01;;;;;;;;;;;;;;;24.17;41.42;101043.78;4285266;33;20040;-82
2022/10/06 12:56:30;;;;;;;;;;;;;;;23.76;43.05;101046.31;4271116;33;19988;-83
2022/10/06 12:59:28;;;;;;;;;;;;;;;23.89;41.90;101046.97;4273808;33;20023;-85
2022/10/06 13:01:59;;;;;;;;;;;;;;;23.73;43.33;101045.53;4283892;33;20042;-84
2022/10/06 13:04:31;;;;;;;;;;;;;;;23.81;44.53;101038.31;4273443;33;20003;-81